Impacts METAR Board
IDs:

KT74 - Taylor Muni, TX, US

Updated at: 0100 UTC 06 Dec 2019
Potential Impact None Slight Moderate High
Time 05/13Z 05/14Z 05/15Z 05/16Z 05/17Z 05/18Z 05/19Z 05/20Z 05/21Z 05/22Z 05/23Z 06/00Z 06/01Z
Temp51 54 57 58 61 62 64 69 71 72 71 68 65
Dewpt48 50 55 57 58 59 60 60 60 60 60 59 59
Altim30.03 30.04 30.04 30.06 30.06 30.03 29.99 29.96 29.93 29.92 29.94 29.94 29.95
VIS10 7 5 3 10 10 10 10 10 10 10 10 10
CIG-- 6 6 4 4 4 6 16 22 -- -- -- --
CoverSCTOVCOVCOVCOVCOVCOVCOVCBKNCLRCLRCLRCLR
FltCatVFRIFRIFRLIFRLIFRLIFRIFRMVFRMVFRVFRVFRVFRVFR
WX--BRBRBR------------------
WDir180180180170180180190190180170190200190
WSpd5 6 7 7 9 12 13 15 17 15 12 8 5
WGst-- -- -- -- -- -- 18 20 21 22 -- -- --
Raw hourly METARs
KT74 051255Z AUTO 18005KT 10SM SCT010 10/09 A3003 RMK AO2 T01030090
KT74 051355Z AUTO 18006KT 7SM BR BKN006 OVC012 12/10 A3004 RMK AO2
KT74 051455Z AUTO 18007KT 5SM BR OVC006 14/13 A3004 RMK AO2 T01390125
KT74 051555Z AUTO 17007KT 3SM BR OVC004 15/14 A3006 RMK AO2 T01470139
KT74 051655Z AUTO 18009KT 10SM OVC004 16/15 A3006 RMK AO2 T01620147
KT74 051755Z AUTO 18012KT 10SM OVC004 17/15 A3003 RMK AO2 T01670149 10169 20096
KT74 051855Z AUTO 19013G18KT 10SM OVC006 18/16 A2999 RMK AO2 T01790155
KT74 051955Z AUTO 19015G20KT 10SM OVC016 20/16 A2996 RMK AO2 T02030158
KT74 052055Z AUTO 18017G21KT 10SM BKN022 22/16 A2993 RMK AO2 T02190155
KT74 052155Z AUTO 17015G22KT 10SM CLR 22/15 A2992 RMK AO2 T02200153
KT74 052255Z AUTO 19012KT 10SM CLR 22/15 A2994 RMK AO2 T02170153
KT74 052355Z AUTO 20008KT 10SM CLR 20/15 A2994 RMK AO2 T02000151 10225 20167 402250064
KT74 060055Z AUTO 19005KT 10SM CLR 18/15 A2995 RMK AO2 T01820150